Portada
METAR-TAF:

METAR-TAF

Aeroports :

Arauca, Colòmbia

latitud: 07-04N, longitud: 070-44W, altitud: 128 m

Observació

L'informe es va fer fa 58 minuts, a les 18:00 UTC
Vent 3 kt del Oest
Temperatura 31°C
Humitat 66%
Pressió 1014 hPa
Visibilitat 10 km o més
Núvols disperses a una alçada de 1500 ft

METAR: SKUC 241800Z 26003KT 9999 SCT015 31/24 A2994

Hora: 13:58 (18:58 UTC)


TAF: manca

Observacions i pronòstics meteorològics de més de 4000 aeroports (METAR i TAF).

Les estacions disponibles són els punts grocs i vermells al mapa.

Posi el ratolí al punt desitjat per veure el nom de l'estació.

Feu clic per veure les observacions i els pronòstics meteorològics.

Per canviar el mapa: feu clic els botons verds amb una creu de color negre per apropar; al botó verd amb un guió per allunyar la imatge; o en les fletxes verdes per a mapes adjacents.


METAR-TAF: